Time;durP1;ratioP1;P1;durP2;ratioP2;P2;SDS_P1;SDS_P2;PMS_P1;PMS_P2;Temp;Humidity;BMP_temperature;BMP_pressure;BME280_temperature;BME280_humidity;BME280_pressure;Samples;Min_cycle;Max_cycle;Signal;HPM_P1;HPM_P2
2023/01/27 06:54:58;;;;;;;4.57;3.30;;;;;;;;;;10555188;28;20474;-82
2023/01/27 06:59:59;;;;;;;3.92;2.17;;;;;;;;;;10536377;28;20056;-83
2023/01/27 07:05:00;;;;;;;3.65;2.55;;;;;;;;;;10534333;28;20043;-83
2023/01/27 07:10:01;;;;;;;3.75;3.30;;;;;;;;;;10534654;28;20454;-83
2023/01/27 07:15:06;;;;;;;3.80;2.72;;;;;;;;;;10553070;28;20044;-83
2023/01/27 07:20:08;;;;;;;4.15;3.72;;;;;;;;;;10532499;28;20398;-83
2023/01/27 07:25:09;;;;;;;3.65;3.25;;;;;;;;;;10528395;28;20023;-83
2023/01/27 07:30:10;;;;;;;6.15;5.30;;;;;;;;;;10549297;28;20052;-83
2023/01/27 07:35:11;;;;;;;;;;;;;;;;;;10523752;28;20092;-82
2023/01/27 07:40:14;;;;;;;4.70;3.95;;;;;;;;;;10540442;28;20363;-81
2023/01/27 07:45:15;;;;;;;5.47;4.57;;;;;;;;;;10543436;28;20025;-82
2023/01/27 07:50:16;;;;;;;5.72;3.45;;;;;;;;;;10528303;28;20051;-82
2023/01/27 07:55:17;;;;;;;4.68;3.17;;;;;;;;;;10555342;28;20059;-81
2023/01/27 08:00:20;;;;;;;1.63;1.10;;;;;;;;;;10527722;28;20082;-82
2023/01/27 08:05:22;;;;;;;2.67;1.60;;;;;;;;;;10499039;28;20017;-80
2023/01/27 08:10:23;;;;;;;5.10;2.47;;;;;;;;;;10490949;28;20395;-79
2023/01/27 08:15:24;;;;;;;3.95;3.03;;;;;;;;;;10492591;28;20536;-78
2023/01/27 08:20:26;;;;;;;4.38;3.10;;;;;;;;;;10509867;28;20074;-78
2023/01/27 08:25:27;;;;;;;4.05;1.80;;;;;;;;;;10509258;28;20028;-78
2023/01/27 08:30:28;;;;;;;2.70;2.10;;;;;;;;;;10508599;28;20028;-78
2023/01/27 08:35:29;;;;;;;3.65;2.50;;;;;;;;;;10508835;28;20115;-78
2023/01/27 08:40:30;;;;;;;3.80;2.90;;;;;;;;;;10490013;28;20558;-78
2023/01/27 08:45:31;;;;;;;2.65;2.45;;;;;;;;;;10507981;28;20139;-78
2023/01/27 08:50:32;;;;;;;4.43;2.30;;;;;;;;;;10489063;28;20398;-78
2023/01/27 08:55:33;;;;;;;4.93;3.65;;;;;;;;;;10490339;28;20063;-80
2023/01/27 09:00:34;;;;;;;7.05;4.10;;;;;;;;;;10492756;28;20471;-80
2023/01/27 09:05:36;;;;;;;6.38;3.72;;;;;;;;;;10513517;28;20111;-79
2023/01/27 09:10:40;;;;;;;6.40;3.53;;;;;;;;;;10490782;28;20046;-80
2023/01/27 09:15:42;;;;;;;4.03;2.72;;;;;;;;;;10497226;28;20124;-79
2023/01/27 09:20:43;;;;;;;4.55;3.38;;;;;;;;;;10507210;28;20024;-81
2023/01/27 09:25:44;;;;;;;5.32;3.35;;;;;;;;;;10491516;28;20025;-79
2023/01/27 09:30:45;;;;;;;11.43;7.82;;;;;;;;;;10492060;28;20493;-83
2023/01/27 09:35:51;;;;;;;4.15;2.70;;;;;;;;;;10492733;28;20086;-83
2023/01/27 09:41:16;;;;;;;6.32;3.00;;;;;;;;;;10513605;28;20050;-82
2023/01/27 09:46:27;;;;;;;6.72;3.17;;;;;;;;;;10511049;28;20423;-82
2023/01/27 09:51:34;;;;;;;5.30;3.70;;;;;;;;;;10509703;28;20044;-80
2023/01/27 09:56:53;;;;;;;3.00;1.60;;;;;;;;;;10491243;28;20388;-82
2023/01/27 10:02:10;;;;;;;7.65;3.30;;;;;;;;;;10513732;28;20032;-82
2023/01/27 10:07:11;;;;;;;19.75;10.77;;;;;;;;;;10515301;28;20521;-81
2023/01/27 10:12:21;;;;;;;6.72;5.07;;;;;;;;;;10495676;28;20036;-83
2023/01/27 10:17:37;;;;;;;5.90;2.60;;;;;;;;;;10517713;28;20032;-80
2023/01/27 10:22:57;;;;;;;12.90;2.90;;;;;;;;;;10498236;28;20035;-81
2023/01/27 10:28:00;;;;;;;7.97;4.53;;;;;;;;;;10510253;28;20076;-80
2023/01/27 10:33:16;;;;;;;9.13;4.53;;;;;;;;;;10514230;28;20039;-81
2023/01/27 10:38:26;;;;;;;7.07;3.28;;;;;;;;;;10499016;28;20100;-82
2023/01/27 10:43:38;;;;;;;5.03;2.70;;;;;;;;;;10522126;28;20040;-81
2023/01/27 10:48:54;;;;;;;4.85;3.38;;;;;;;;;;10514141;28;20047;-82
2023/01/27 10:53:58;;;;;;;4.45;2.42;;;;;;;;;;10493457;28;20040;-79
2023/01/27 10:59:22;;;;;;;6.45;3.20;;;;;;;;;;10485927;28;20385;-79
2023/01/27 11:04:36;;;;;;;4.53;3.60;;;;;;;;;;10502318;28;20095;-79
2023/01/27 11:09:42;;;;;;;3.78;2.00;;;;;;;;;;10484901;28;20032;-80
2023/01/27 11:14:50;;;;;;;4.57;3.25;;;;;;;;;;10501881;28;20430;-79
2023/01/27 11:19:54;;;;;;;4.03;2.22;;;;;;;;;;10484743;28;20483;-80
2023/01/27 11:25:00;;;;;;;3.95;2.08;;;;;;;;;;10499908;28;20040;-80
2023/01/27 11:30:21;;;;;;;4.70;2.70;;;;;;;;;;10500781;28;20095;-80
2023/01/27 11:35:22;;;;;;;3.10;2.00;;;;;;;;;;10500256;28;20535;-79
2023/01/27 11:40:26;;;;;;;11.93;5.72;;;;;;;;;;10504721;28;20031;-79
2023/01/27 11:45:30;;;;;;;4.78;1.40;;;;;;;;;;10510320;28;20025;-78
2023/01/27 11:50:35;;;;;;;3.33;1.88;;;;;;;;;;10507527;28;20025;-79
2023/01/27 11:55:47;;;;;;;3.53;2.10;;;;;;;;;;10508738;28;20025;-79
2023/01/27 12:00:54;;;;;;;2.42;2.13;;;;;;;;;;10498355;28;20465;-79
2023/01/27 12:05:59;;;;;;;3.83;2.70;;;;;;;;;;10504046;28;20032;-79
2023/01/27 12:11:16;;;;;;;3.70;1.75;;;;;;;;;;10503957;28;20064;-80
2023/01/27 12:16:17;;;;;;;4.28;2.00;;;;;;;;;;10490553;28;20039;-80
2023/01/27 12:21:18;;;;;;;3.45;1.88;;;;;;;;;;10506796;28;20110;-80
2023/01/27 12:26:36;;;;;;;2.05;1.55;;;;;;;;;;10489297;28;20336;-80
2023/01/27 12:31:45;;;;;;;3.35;1.77;;;;;;;;;;10507972;28;20028;-80
2023/01/27 12:36:47;;;;;;;2.58;1.63;;;;;;;;;;10510074;28;20063;-80
2023/01/27 12:41:48;;;;;;;5.60;1.30;;;;;;;;;;10491139;28;20371;-78
2023/01/27 12:47:02;;;;;;;2.35;0.90;;;;;;;;;;10488960;28;20031;-80
2023/01/27 12:52:07;;;;;;;3.00;1.23;;;;;;;;;;10499769;28;20476;-80
2023/01/27 12:57:13;;;;;;;2.40;1.40;;;;;;;;;;10494957;28;20025;-80
2023/01/27 13:02:21;;;;;;;2.35;1.30;;;;;;;;;;10493809;28;20055;-80
2023/01/27 13:07:25;;;;;;;2.40;1.20;;;;;;;;;;10494362;28;20112;-80
2023/01/27 13:12:27;;;;;;;1.63;1.00;;;;;;;;;;10513478;28;20035;-79
2023/01/27 13:17:29;;;;;;;3.40;1.75;;;;;;;;;;10492932;28;20056;-80
2023/01/27 13:22:29;;;;;;;;;;;;;;;;;;10492347;28;20032;-79
2023/01/27 13:27:33;;;;;;;2.88;2.10;;;;;;;;;;10507460;28;19904;-80
2023/01/27 13:32:36;;;;;;;1.65;1.15;;;;;;;;;;10489474;28;20025;-80
2023/01/27 13:37:39;;;;;;;2.40;1.23;;;;;;;;;;10508189;28;20039;-79
2023/01/27 13:42:43;;;;;;;3.40;1.20;;;;;;;;;;10541037;28;20044;-81
2023/01/27 13:48:03;;;;;;;2.30;1.30;;;;;;;;;;10525074;28;20093;-80
2023/01/27 13:53:05;;;;;;;3.10;1.20;;;;;;;;;;10531253;28;20036;-82
2023/01/27 13:58:11;;;;;;;1.52;1.30;;;;;;;;;;10515246;28;20032;-81
2023/01/27 14:03:27;;;;;;;1.98;1.02;;;;;;;;;;10507378;28;20043;-82
2023/01/27 14:08:48;;;;;;;1.98;1.17;;;;;;;;;;10502807;28;20102;-81
2023/01/27 14:14:08;;;;;;;2.92;1.05;;;;;;;;;;10498794;28;20101;-81
2023/01/27 14:19:39;;;;;;;2.20;1.58;;;;;;;;;;10507731;28;20024;-79
2023/01/27 14:24:43;;;;;;;2.30;1.05;;;;;;;;;;10404945;28;20066;-80
2023/01/27 14:30:00;;;;;;;1.25;0.82;;;;;;;;;;10493083;28;20166;-81
2023/01/27 14:35:04;;;;;;;2.80;1.20;;;;;;;;;;10492050;28;20029;-79
2023/01/27 14:40:40;;;;;;;1.17;1.00;;;;;;;;;;10493490;28;20108;-81
2023/01/27 14:45:48;;;;;;;1.73;0.98;;;;;;;;;;10370706;28;20371;-80
2023/01/27 14:50:53;;;;;;;3.35;2.28;;;;;;;;;;10486726;28;20119;-80
2023/01/27 14:56:13;;;;;;;2.15;1.02;;;;;;;;;;10483332;28;20054;-80
2023/01/27 15:01:23;;;;;;;1.75;1.20;;;;;;;;;;10501990;28;20494;-80
2023/01/27 15:06:29;;;;;;;2.17;1.43;;;;;;;;;;10483794;28;20017;-80
2023/01/27 15:11:54;;;;;;;2.28;1.10;;;;;;;;;;10482864;28;20078;-80
2023/01/27 15:17:04;;;;;;;2.63;1.75;;;;;;;;;;10494948;28;20033;-79
2023/01/27 15:22:29;;;;;;;7.17;5.53;;;;;;;;;;10492062;28;20032;-79
2023/01/27 15:27:30;;;;;;;1.30;1.05;;;;;;;;;;10489907;28;20024;-79
2023/01/27 15:32:31;;;;;;;;;;;;;;;;;;10508943;28;20024;-81
2023/01/27 15:37:32;;;;;;;3.13;1.38;;;;;;;;;;10497171;28;19904;-82
2023/01/27 15:42:53;;;;;;;2.17;1.23;;;;;;;;;;10498058;28;20033;-81
2023/01/27 15:47:57;;;;;;;2.35;1.17;;;;;;;;;;10505420;28;20012;-82
2023/01/27 15:53:00;;;;;;;2.13;1.20;;;;;;;;;;10497939;28;20582;-82
2023/01/27 15:58:04;;;;;;;2.03;1.40;;;;;;;;;;10496602;28;20127;-83
2023/01/27 16:03:14;;;;;;;2.45;1.05;;;;;;;;;;10516084;28;20103;-81
2023/01/27 16:08:16;;;;;;;2.78;1.92;;;;;;;;;;10516316;28;20078;-82
2023/01/27 16:13:22;;;;;;;2.20;1.45;;;;;;;;;;10489555;28;20028;-79
2023/01/27 16:18:24;;;;;;;2.15;1.38;;;;;;;;;;10488707;28;20036;-78
2023/01/27 16:23:31;;;;;;;1.48;1.20;;;;;;;;;;10490283;28;20028;-79
2023/01/27 16:28:32;;;;;;;1.35;1.05;;;;;;;;;;10512907;28;20078;-81
2023/01/27 16:33:33;;;;;;;;;;;;;;;;;;10493868;28;20087;-81
2023/01/27 16:38:40;;;;;;;3.83;1.73;;;;;;;;;;10513795;28;20320;-79
2023/01/27 16:43:49;;;;;;;2.03;1.40;;;;;;;;;;10519851;28;20108;-83
2023/01/27 16:48:51;;;;;;;3.58;1.90;;;;;;;;;;10492901;28;20194;-80
2023/01/27 16:53:53;;;;;;;1.85;1.17;;;;;;;;;;10486210;28;20522;-78
2023/01/27 16:58:58;;;;;;;3.10;2.40;;;;;;;;;;10498812;28;20025;-81
2023/01/27 17:04:01;;;;;;;4.15;1.70;;;;;;;;;;10513354;28;20538;-81
2023/01/27 17:09:03;;;;;;;2.90;1.52;;;;;;;;;;10505189;28;20104;-78
2023/01/27 17:14:10;;;;;;;1.95;1.25;;;;;;;;;;10486549;28;20032;-78
2023/01/27 17:19:20;;;;;;;1.85;1.13;;;;;;;;;;10486118;28;20089;-78
2023/01/27 17:24:25;;;;;;;2.92;1.33;;;;;;;;;;10490583;28;20040;-79
2023/01/27 17:29:30;;;;;;;2.78;1.50;;;;;;;;;;10510051;28;20073;-80
2023/01/27 17:34:31;;;;;;;2.35;1.75;;;;;;;;;;10502493;28;20122;-80
2023/01/27 17:39:32;;;;;;;;;;;;;;;;;;10529161;28;20466;-81
2023/01/27 17:44:34;;;;;;;2.55;1.80;;;;;;;;;;10513628;28;19936;-82
2023/01/27 17:49:37;;;;;;;1.77;1.30;;;;;;;;;;10504527;28;20120;-81
2023/01/27 17:54:42;;;;;;;1.52;1.30;;;;;;;;;;10498002;28;20041;-83
2023/01/27 17:59:58;;;;;;;1.50;1.20;;;;;;;;;;10503597;28;20028;-84
2023/01/27 18:05:01;;;;;;;3.78;1.95;;;;;;;;;;10521574;28;20103;-81
2023/01/27 18:10:21;;;;;;;2.88;2.30;;;;;;;;;;10505186;28;20039;-81
2023/01/27 18:15:34;;;;;;;3.88;2.63;;;;;;;;;;10502674;28;20463;-84
2023/01/27 18:20:36;;;;;;;2.05;1.25;;;;;;;;;;10502443;28;20127;-81
2023/01/27 18:25:37;;;;;;;1.58;1.40;;;;;;;;;;10521917;28;20035;-81
2023/01/27 18:30:44;;;;;;;2.28;1.73;;;;;;;;;;10517650;28;20076;-83
2023/01/27 18:35:55;;;;;;;2.55;1.20;;;;;;;;;;10499759;28;20104;-81
2023/01/27 20:10:33;;;;;;;3.22;2.28;;;;;;;;;;10453720;28;19912;-87
2023/01/27 20:15:55;;;;;;;2.50;1.77;;;;;;;;;;10417858;28;20034;-85
